sensor_id;sensor_type;location;lat;lon;timestamp;P1;durP1;ratioP1;P2;durP2;ratioP2
61112;SDS011;47184;57.998;56.184;2022-10-24T00:00:44;5.20;;;2.85;;
61112;SDS011;47184;57.998;56.184;2022-10-24T00:03:11;3.65;;;1.60;;
61112;SDS011;47184;57.998;56.184;2022-10-24T00:05:41;4.88;;;2.58;;
61112;SDS011;47184;57.998;56.184;2022-10-24T00:08:12;5.95;;;3.67;;
61112;SDS011;47184;57.998;56.184;2022-10-24T00:10:42;4.53;;;1.70;;
61112;SDS011;47184;57.998;56.184;2022-10-24T00:13:10;5.57;;;2.60;;
61112;SDS011;47184;57.998;56.184;2022-10-24T00:15:37;3.67;;;1.50;;
61112;SDS011;47184;57.998;56.184;2022-10-24T00:18:03;6.85;;;2.47;;
61112;SDS011;47184;57.998;56.184;2022-10-24T00:20:30;7.93;;;2.58;;
61112;SDS011;47184;57.998;56.184;2022-10-24T00:22:56;6.40;;;3.53;;
61112;SDS011;47184;57.998;56.184;2022-10-24T00:25:22;7.93;;;3.83;;
61112;SDS011;47184;57.998;56.184;2022-10-24T00:27:48;4.90;;;2.17;;
61112;SDS011;47184;57.998;56.184;2022-10-24T00:30:14;3.97;;;1.85;;
61112;SDS011;47184;57.998;56.184;2022-10-24T00:32:40;6.00;;;1.73;;
61112;SDS011;47184;57.998;56.184;2022-10-24T00:35:06;5.90;;;3.50;;
61112;SDS011;47184;57.998;56.184;2022-10-24T00:37:33;1.17;;;0.40;;
61112;SDS011;47184;57.998;56.184;2022-10-24T00:39:59;1.92;;;0.98;;
61112;SDS011;47184;57.998;56.184;2022-10-24T00:42:25;4.10;;;1.80;;
61112;SDS011;47184;57.998;56.184;2022-10-24T00:44:52;5.35;;;2.40;;
61112;SDS011;47184;57.998;56.184;2022-10-24T00:47:19;4.53;;;2.30;;
61112;SDS011;47184;57.998;56.184;2022-10-24T00:52:23;3.75;;;1.88;;
61112;SDS011;47184;57.998;56.184;2022-10-24T00:57:21;3.75;;;1.60;;
61112;SDS011;47184;57.998;56.184;2022-10-24T00:59:54;6.57;;;2.42;;
61112;SDS011;47184;57.998;56.184;2022-10-24T01:02:23;3.08;;;1.52;;
61112;SDS011;47184;57.998;56.184;2022-10-24T01:04:49;7.20;;;2.33;;
61112;SDS011;47184;57.998;56.184;2022-10-24T01:16:28;5.07;;;1.75;;
61112;SDS011;47184;57.998;56.184;2022-10-24T01:19:13;4.57;;;2.22;;
61112;SDS011;47184;57.998;56.184;2022-10-24T01:21:47;4.22;;;1.33;;
61112;SDS011;47184;57.998;56.184;2022-10-24T01:24:28;7.25;;;2.25;;
61112;SDS011;47184;57.998;56.184;2022-10-24T01:40:32;4.70;;;2.35;;
61112;SDS011;47184;57.998;56.184;2022-10-24T01:43:10;5.30;;;1.88;;
61112;SDS011;47184;57.998;56.184;2022-10-24T01:45:40;3.85;;;1.20;;
61112;SDS011;47184;57.998;56.184;2022-10-24T01:48:11;4.20;;;1.90;;
61112;SDS011;47184;57.998;56.184;2022-10-24T01:50:42;2.13;;;1.05;;
61112;SDS011;47184;57.998;56.184;2022-10-24T01:53:12;4.78;;;1.80;;
61112;SDS011;47184;57.998;56.184;2022-10-24T01:55:39;2.03;;;0.57;;
61112;SDS011;47184;57.998;56.184;2022-10-24T01:58:06;1.30;;;0.60;;
61112;SDS011;47184;57.998;56.184;2022-10-24T02:00:32;4.00;;;1.38;;
61112;SDS011;47184;57.998;56.184;2022-10-24T02:03:07;4.00;;;1.60;;
61112;SDS011;47184;57.998;56.184;2022-10-24T02:05:41;2.83;;;1.48;;
61112;SDS011;47184;57.998;56.184;2022-10-24T02:08:12;4.35;;;1.00;;
61112;SDS011;47184;57.998;56.184;2022-10-24T02:10:50;5.25;;;1.38;;
61112;SDS011;47184;57.998;56.184;2022-10-24T02:13:28;3.63;;;2.05;;
61112;SDS011;47184;57.998;56.184;2022-10-24T02:15:55;6.68;;;1.60;;
61112;SDS011;47184;57.998;56.184;2022-10-24T02:18:26;3.80;;;1.92;;
61112;SDS011;47184;57.998;56.184;2022-10-24T02:23:29;6.10;;;1.20;;
61112;SDS011;47184;57.998;56.184;2022-10-24T02:26:23;1.65;;;1.15;;
61112;SDS011;47184;57.998;56.184;2022-10-24T02:29:23;3.50;;;1.75;;
61112;SDS011;47184;57.998;56.184;2022-10-24T02:31:57;2.72;;;1.42;;
61112;SDS011;47184;57.998;56.184;2022-10-24T02:34:24;2.50;;;1.52;;
61112;SDS011;47184;57.998;56.184;2022-10-24T02:36:56;2.25;;;1.25;;
61112;SDS011;47184;57.998;56.184;2022-10-24T02:39:24;4.65;;;2.65;;
61112;SDS011;47184;57.998;56.184;2022-10-24T02:41:51;5.22;;;2.35;;
61112;SDS011;47184;57.998;56.184;2022-10-24T02:44:20;2.17;;;0.70;;
61112;SDS011;47184;57.998;56.184;2022-10-24T02:46:47;3.33;;;1.65;;
61112;SDS011;47184;57.998;56.184;2022-10-24T02:49:17;17.58;;;1.92;;
61112;SDS011;47184;57.998;56.184;2022-10-24T02:51:43;7.95;;;3.33;;
61112;SDS011;47184;57.998;56.184;2022-10-24T02:54:11;5.00;;;2.85;;
61112;SDS011;47184;57.998;56.184;2022-10-24T02:56:39;3.97;;;1.90;;
61112;SDS011;47184;57.998;56.184;2022-10-24T02:59:11;7.03;;;2.05;;
61112;SDS011;47184;57.998;56.184;2022-10-24T03:01:37;6.00;;;2.28;;
61112;SDS011;47184;57.998;56.184;2022-10-24T03:04:03;7.72;;;2.50;;
61112;SDS011;47184;57.998;56.184;2022-10-24T03:06:29;3.40;;;1.33;;
61112;SDS011;47184;57.998;56.184;2022-10-24T03:08:55;3.97;;;2.15;;
61112;SDS011;47184;57.998;56.184;2022-10-24T03:11:21;5.93;;;2.13;;
61112;SDS011;47184;57.998;56.184;2022-10-24T03:13:48;7.60;;;3.13;;
61112;SDS011;47184;57.998;56.184;2022-10-24T03:16:14;8.75;;;4.22;;
61112;SDS011;47184;57.998;56.184;2022-10-24T03:18:40;7.00;;;2.90;;
61112;SDS011;47184;57.998;56.184;2022-10-24T03:21:06;3.55;;;2.42;;
61112;SDS011;47184;57.998;56.184;2022-10-24T03:23:32;7.57;;;2.58;;
61112;SDS011;47184;57.998;56.184;2022-10-24T03:25:58;4.38;;;2.60;;
61112;SDS011;47184;57.998;56.184;2022-10-24T03:28:24;2.97;;;1.45;;
61112;SDS011;47184;57.998;56.184;2022-10-24T03:30:51;4.18;;;2.05;;
61112;SDS011;47184;57.998;56.184;2022-10-24T03:33:18;2.83;;;1.75;;
61112;SDS011;47184;57.998;56.184;2022-10-24T03:35:44;7.75;;;4.50;;
61112;SDS011;47184;57.998;56.184;2022-10-24T03:38:10;6.88;;;3.72;;
61112;SDS011;47184;57.998;56.184;2022-10-24T03:40:36;6.03;;;3.40;;
61112;SDS011;47184;57.998;56.184;2022-10-24T03:43:03;7.55;;;3.42;;
61112;SDS011;47184;57.998;56.184;2022-10-24T03:45:29;2.03;;;1.20;;
61112;SDS011;47184;57.998;56.184;2022-10-24T03:47:55;8.85;;;2.25;;
61112;SDS011;47184;57.998;56.184;2022-10-24T03:50:21;3.42;;;2.00;;
61112;SDS011;47184;57.998;56.184;2022-10-24T03:52:48;3.67;;;2.30;;
61112;SDS011;47184;57.998;56.184;2022-10-24T03:55:14;3.83;;;1.88;;
61112;SDS011;47184;57.998;56.184;2022-10-24T03:57:40;6.50;;;3.92;;
61112;SDS011;47184;57.998;56.184;2022-10-24T04:00:06;7.88;;;3.28;;
61112;SDS011;47184;57.998;56.184;2022-10-24T04:02:33;6.13;;;2.33;;
61112;SDS011;47184;57.998;56.184;2022-10-24T04:04:59;8.15;;;3.83;;
61112;SDS011;47184;57.998;56.184;2022-10-24T04:07:25;4.25;;;1.80;;
61112;SDS011;47184;57.998;56.184;2022-10-24T04:09:51;10.00;;;3.90;;
61112;SDS011;47184;57.998;56.184;2022-10-24T04:12:17;6.32;;;3.75;;
61112;SDS011;47184;57.998;56.184;2022-10-24T04:14:43;4.70;;;2.22;;
61112;SDS011;47184;57.998;56.184;2022-10-24T04:17:09;5.88;;;1.45;;
61112;SDS011;47184;57.998;56.184;2022-10-24T04:19:35;5.25;;;2.70;;
61112;SDS011;47184;57.998;56.184;2022-10-24T04:22:01;15.98;;;2.67;;
61112;SDS011;47184;57.998;56.184;2022-10-24T04:24:27;7.70;;;3.75;;
61112;SDS011;47184;57.998;56.184;2022-10-24T04:26:53;4.90;;;2.85;;
61112;SDS011;47184;57.998;56.184;2022-10-24T04:29:19;6.18;;;3.10;;
61112;SDS011;47184;57.998;56.184;2022-10-24T04:31:46;6.45;;;2.83;;
61112;SDS011;47184;57.998;56.184;2022-10-24T04:34:12;6.88;;;3.38;;
61112;SDS011;47184;57.998;56.184;2022-10-24T04:36:38;5.38;;;3.50;;
61112;SDS011;47184;57.998;56.184;2022-10-24T04:39:04;9.73;;;4.10;;
61112;SDS011;47184;57.998;56.184;2022-10-24T04:41:31;7.35;;;2.53;;
61112;SDS011;47184;57.998;56.184;2022-10-24T04:43:57;4.82;;;2.72;;
61112;SDS011;47184;57.998;56.184;2022-10-24T04:46:24;2.08;;;1.42;;
61112;SDS011;47184;57.998;56.184;2022-10-24T04:48:50;12.40;;;4.88;;
61112;SDS011;47184;57.998;56.184;2022-10-24T04:51:16;7.88;;;3.33;;
61112;SDS011;47184;57.998;56.184;2022-10-24T04:53:42;5.25;;;2.45;;
61112;SDS011;47184;57.998;56.184;2022-10-24T04:56:08;11.70;;;3.63;;
61112;SDS011;47184;57.998;56.184;2022-10-24T04:58:34;4.57;;;2.22;;
61112;SDS011;47184;57.998;56.184;2022-10-24T05:01:00;3.63;;;2.03;;
61112;SDS011;47184;57.998;56.184;2022-10-24T05:03:27;8.10;;;4.50;;
61112;SDS011;47184;57.998;56.184;2022-10-24T05:05:53;8.52;;;3.33;;
61112;SDS011;47184;57.998;56.184;2022-10-24T05:08:19;3.80;;;2.25;;
61112;SDS011;47184;57.998;56.184;2022-10-24T05:10:45;10.88;;;2.65;;
61112;SDS011;47184;57.998;56.184;2022-10-24T05:13:12;5.82;;;3.30;;
61112;SDS011;47184;57.998;56.184;2022-10-24T05:15:38;6.13;;;1.58;;
61112;SDS011;47184;57.998;56.184;2022-10-24T05:18:04;10.50;;;5.05;;
61112;SDS011;47184;57.998;56.184;2022-10-24T05:20:30;6.72;;;3.00;;
61112;SDS011;47184;57.998;56.184;2022-10-24T05:22:56;10.25;;;4.45;;
61112;SDS011;47184;57.998;56.184;2022-10-24T05:25:22;6.38;;;3.72;;
61112;SDS011;47184;57.998;56.184;2022-10-24T05:27:48;11.38;;;2.45;;
61112;SDS011;47184;57.998;56.184;2022-10-24T05:30:14;7.55;;;3.88;;
61112;SDS011;47184;57.998;56.184;2022-10-24T05:32:41;10.70;;;4.95;;
61112;SDS011;47184;57.998;56.184;2022-10-24T05:35:07;9.55;;;4.50;;
61112;SDS011;47184;57.998;56.184;2022-10-24T05:37:33;3.53;;;1.88;;
61112;SDS011;47184;57.998;56.184;2022-10-24T05:39:59;12.50;;;4.35;;
61112;SDS011;47184;57.998;56.184;2022-10-24T05:42:25;4.28;;;2.70;;
61112;SDS011;47184;57.998;56.184;2022-10-24T05:44:52;7.57;;;4.25;;
61112;SDS011;47184;57.998;56.184;2022-10-24T05:47:18;8.30;;;4.18;;
61112;SDS011;47184;57.998;56.184;2022-10-24T05:49:44;6.00;;;3.38;;
61112;SDS011;47184;57.998;56.184;2022-10-24T05:52:10;4.28;;;2.38;;
61112;SDS011;47184;57.998;56.184;2022-10-24T05:54:36;4.25;;;2.55;;
61112;SDS011;47184;57.998;56.184;2022-10-24T05:57:02;4.32;;;2.35;;
61112;SDS011;47184;57.998;56.184;2022-10-24T05:59:28;9.57;;;4.85;;
61112;SDS011;47184;57.998;56.184;2022-10-24T06:01:54;8.43;;;2.97;;
61112;SDS011;47184;57.998;56.184;2022-10-24T06:04:20;5.47;;;2.20;;
61112;SDS011;47184;57.998;56.184;2022-10-24T06:06:46;7.32;;;3.90;;
61112;SDS011;47184;57.998;56.184;2022-10-24T06:09:12;10.18;;;4.65;;
61112;SDS011;47184;57.998;56.184;2022-10-24T06:11:41;2.65;;;1.70;;
61112;SDS011;47184;57.998;56.184;2022-10-24T06:14:08;6.68;;;3.20;;
61112;SDS011;47184;57.998;56.184;2022-10-24T06:16:34;4.57;;;2.05;;
61112;SDS011;47184;57.998;56.184;2022-10-24T06:19:00;6.68;;;2.83;;
61112;SDS011;47184;57.998;56.184;2022-10-24T06:21:26;10.52;;;2.97;;
61112;SDS011;47184;57.998;56.184;2022-10-24T06:23:53;11.75;;;2.10;;
61112;SDS011;47184;57.998;56.184;2022-10-24T06:26:19;8.80;;;4.82;;
61112;SDS011;47184;57.998;56.184;2022-10-24T06:28:46;8.07;;;3.58;;
61112;SDS011;47184;57.998;56.184;2022-10-24T06:31:12;6.50;;;3.42;;
61112;SDS011;47184;57.998;56.184;2022-10-24T06:33:38;10.90;;;3.45;;
61112;SDS011;47184;57.998;56.184;2022-10-24T06:36:06;6.95;;;3.38;;
61112;SDS011;47184;57.998;56.184;2022-10-24T06:38:34;6.13;;;3.45;;
61112;SDS011;47184;57.998;56.184;2022-10-24T06:41:08;4.97;;;2.30;;
61112;SDS011;47184;57.998;56.184;2022-10-24T06:43:36;11.52;;;3.78;;
61112;SDS011;47184;57.998;56.184;2022-10-24T06:46:06;6.15;;;3.50;;
61112;SDS011;47184;57.998;56.184;2022-10-24T06:48:33;3.08;;;1.75;;
61112;SDS011;47184;57.998;56.184;2022-10-24T06:51:00;6.43;;;1.73;;
61112;SDS011;47184;57.998;56.184;2022-10-24T06:53:27;4.70;;;1.75;;
61112;SDS011;47184;57.998;56.184;2022-10-24T06:55:54;4.50;;;2.50;;
61112;SDS011;47184;57.998;56.184;2022-10-24T06:58:20;1.42;;;0.85;;
61112;SDS011;47184;57.998;56.184;2022-10-24T07:00:46;4.10;;;2.53;;
61112;SDS011;47184;57.998;56.184;2022-10-24T07:03:15;11.45;;;2.97;;
61112;SDS011;47184;57.998;56.184;2022-10-24T07:05:41;5.60;;;2.88;;
61112;SDS011;47184;57.998;56.184;2022-10-24T07:08:07;4.03;;;1.63;;
61112;SDS011;47184;57.998;56.184;2022-10-24T07:10:33;9.52;;;1.83;;
61112;SDS011;47184;57.998;56.184;2022-10-24T07:12:59;5.75;;;3.05;;
61112;SDS011;47184;57.998;56.184;2022-10-24T07:15:25;9.27;;;2.80;;
61112;SDS011;47184;57.998;56.184;2022-10-24T07:17:51;5.30;;;3.85;;
61112;SDS011;47184;57.998;56.184;2022-10-24T07:20:18;5.28;;;3.20;;
61112;SDS011;47184;57.998;56.184;2022-10-24T07:22:44;1.88;;;1.33;;
61112;SDS011;47184;57.998;56.184;2022-10-24T07:25:10;6.95;;;2.03;;
61112;SDS011;47184;57.998;56.184;2022-10-24T07:27:40;6.10;;;2.60;;
61112;SDS011;47184;57.998;56.184;2022-10-24T07:30:07;5.32;;;2.75;;
61112;SDS011;47184;57.998;56.184;2022-10-24T07:32:33;3.70;;;1.90;;
61112;SDS011;47184;57.998;56.184;2022-10-24T07:34:59;7.55;;;3.92;;
61112;SDS011;47184;57.998;56.184;2022-10-24T07:37:26;5.03;;;2.22;;
61112;SDS011;47184;57.998;56.184;2022-10-24T07:39:52;5.55;;;2.92;;
61112;SDS011;47184;57.998;56.184;2022-10-24T07:42:18;4.25;;;2.90;;
61112;SDS011;47184;57.998;56.184;2022-10-24T07:44:44;9.30;;;4.15;;
61112;SDS011;47184;57.998;56.184;2022-10-24T07:47:10;8.52;;;3.10;;
61112;SDS011;47184;57.998;56.184;2022-10-24T07:49:36;3.35;;;1.20;;
61112;SDS011;47184;57.998;56.184;2022-10-24T07:52:03;3.20;;;1.95;;
61112;SDS011;47184;57.998;56.184;2022-10-24T07:54:30;4.72;;;3.05;;
61112;SDS011;47184;57.998;56.184;2022-10-24T07:56:56;8.45;;;2.63;;
61112;SDS011;47184;57.998;56.184;2022-10-24T07:59:22;4.93;;;2.30;;
61112;SDS011;47184;57.998;56.184;2022-10-24T08:01:48;5.10;;;3.13;;
61112;SDS011;47184;57.998;56.184;2022-10-24T08:04:14;3.83;;;1.77;;
61112;SDS011;47184;57.998;56.184;2022-10-24T08:06:40;12.70;;;3.13;;
61112;SDS011;47184;57.998;56.184;2022-10-24T08:09:07;3.63;;;1.67;;
61112;SDS011;47184;57.998;56.184;2022-10-24T08:11:33;5.88;;;2.45;;
61112;SDS011;47184;57.998;56.184;2022-10-24T08:13:59;3.08;;;1.83;;
61112;SDS011;47184;57.998;56.184;2022-10-24T08:16:27;9.05;;;3.97;;
61112;SDS011;47184;57.998;56.184;2022-10-24T08:18:54;4.28;;;1.92;;
61112;SDS011;47184;57.998;56.184;2022-10-24T08:21:22;4.72;;;2.90;;
61112;SDS011;47184;57.998;56.184;2022-10-24T08:23:50;3.53;;;1.67;;
61112;SDS011;47184;57.998;56.184;2022-10-24T08:26:18;6.53;;;3.58;;
61112;SDS011;47184;57.998;56.184;2022-10-24T08:28:46;9.50;;;2.90;;
61112;SDS011;47184;57.998;56.184;2022-10-24T08:31:14;8.27;;;4.03;;
61112;SDS011;47184;57.998;56.184;2022-10-24T08:33:42;6.22;;;2.50;;
61112;SDS011;47184;57.998;56.184;2022-10-24T08:36:12;3.83;;;2.60;;
61112;SDS011;47184;57.998;56.184;2022-10-24T08:39:05;5.15;;;2.17;;
61112;SDS011;47184;57.998;56.184;2022-10-24T08:41:32;6.65;;;3.13;;
61112;SDS011;47184;57.998;56.184;2022-10-24T08:44:16;14.63;;;4.00;;
61112;SDS011;47184;57.998;56.184;2022-10-24T08:46:50;7.30;;;2.15;;
61112;SDS011;47184;57.998;56.184;2022-10-24T08:51:55;2.83;;;1.27;;
61112;SDS011;47184;57.998;56.184;2022-10-24T08:54:29;1.55;;;1.10;;
61112;SDS011;47184;57.998;56.184;2022-10-24T08:57:01;7.25;;;2.40;;
61112;SDS011;47184;57.998;56.184;2022-10-24T08:59:29;2.88;;;1.55;;
61112;SDS011;47184;57.998;56.184;2022-10-24T09:02:01;3.42;;;1.80;;
61112;SDS011;47184;57.998;56.184;2022-10-24T09:04:41;4.10;;;1.58;;
61112;SDS011;47184;57.998;56.184;2022-10-24T09:07:17;4.28;;;2.35;;
61112;SDS011;47184;57.998;56.184;2022-10-24T09:09:46;3.55;;;1.98;;
61112;SDS011;47184;57.998;56.184;2022-10-24T09:12:15;4.93;;;2.42;;
61112;SDS011;47184;57.998;56.184;2022-10-24T09:14:44;3.10;;;1.52;;
61112;SDS011;47184;57.998;56.184;2022-10-24T09:19:59;6.00;;;2.20;;
61112;SDS011;47184;57.998;56.184;2022-10-24T09:22:43;4.50;;;1.10;;
61112;SDS011;47184;57.998;56.184;2022-10-24T09:25:16;3.67;;;2.28;;
61112;SDS011;47184;57.998;56.184;2022-10-24T09:27:48;2.58;;;1.25;;
61112;SDS011;47184;57.998;56.184;2022-10-24T09:30:17;4.15;;;2.20;;
61112;SDS011;47184;57.998;56.184;2022-10-24T09:32:49;8.10;;;2.75;;
61112;SDS011;47184;57.998;56.184;2022-10-24T09:35:18;6.75;;;1.52;;
61112;SDS011;47184;57.998;56.184;2022-10-24T09:37:55;7.47;;;3.63;;
61112;SDS011;47184;57.998;56.184;2022-10-24T09:40:27;2.05;;;1.00;;
61112;SDS011;47184;57.998;56.184;2022-10-24T09:50:41;6.00;;;2.63;;
61112;SDS011;47184;57.998;56.184;2022-10-24T09:53:18;4.70;;;2.65;;
61112;SDS011;47184;57.998;56.184;2022-10-24T09:56:05;9.82;;;3.45;;
61112;SDS011;47184;57.998;56.184;2022-10-24T09:58:33;6.75;;;3.58;;
61112;SDS011;47184;57.998;56.184;2022-10-24T10:01:01;4.43;;;2.67;;
61112;SDS011;47184;57.998;56.184;2022-10-24T10:03:27;5.57;;;2.28;;
61112;SDS011;47184;57.998;56.184;2022-10-24T10:06:01;6.22;;;3.08;;
61112;SDS011;47184;57.998;56.184;2022-10-24T10:08:52;7.50;;;3.97;;
61112;SDS011;47184;57.998;56.184;2022-10-24T10:11:30;6.65;;;3.05;;
61112;SDS011;47184;57.998;56.184;2022-10-24T10:13:59;14.32;;;2.38;;
61112;SDS011;47184;57.998;56.184;2022-10-24T10:16:27;2.75;;;0.85;;
61112;SDS011;47184;57.998;56.184;2022-10-24T10:19:18;5.55;;;2.90;;
61112;SDS011;47184;57.998;56.184;2022-10-24T10:21:52;3.42;;;2.05;;
61112;SDS011;47184;57.998;56.184;2022-10-24T10:27:00;3.38;;;2.17;;
61112;SDS011;47184;57.998;56.184;2022-10-24T10:29:26;7.40;;;3.40;;
61112;SDS011;47184;57.998;56.184;2022-10-24T10:31:56;3.03;;;1.98;;
61112;SDS011;47184;57.998;56.184;2022-10-24T10:34:36;4.35;;;2.72;;
61112;SDS011;47184;57.998;56.184;2022-10-24T10:39:46;6.40;;;3.72;;
61112;SDS011;47184;57.998;56.184;2022-10-24T10:42:22;5.90;;;4.43;;
61112;SDS011;47184;57.998;56.184;2022-10-24T10:50:34;2.90;;;1.77;;
61112;SDS011;47184;57.998;56.184;2022-10-24T10:53:04;3.50;;;2.22;;
61112;SDS011;47184;57.998;56.184;2022-10-24T10:55:54;5.05;;;2.88;;
61112;SDS011;47184;57.998;56.184;2022-10-24T11:01:24;3.13;;;2.15;;
61112;SDS011;47184;57.998;56.184;2022-10-24T11:04:05;4.65;;;2.90;;
61112;SDS011;47184;57.998;56.184;2022-10-24T11:12:11;4.72;;;2.10;;
61112;SDS011;47184;57.998;56.184;2022-10-24T11:14:46;5.70;;;2.80;;
61112;SDS011;47184;57.998;56.184;2022-10-24T11:17:23;2.95;;;1.98;;
61112;SDS011;47184;57.998;56.184;2022-10-24T11:26:24;3.88;;;1.67;;
61112;SDS011;47184;57.998;56.184;2022-10-24T11:29:13;2.97;;;1.45;;
61112;SDS011;47184;57.998;56.184;2022-10-24T11:31:42;3.42;;;2.47;;
61112;SDS011;47184;57.998;56.184;2022-10-24T11:34:24;3.42;;;1.80;;
61112;SDS011;47184;57.998;56.184;2022-10-24T11:39:29;2.55;;;1.65;;
61112;SDS011;47184;57.998;56.184;2022-10-24T11:41:58;1.75;;;1.20;;
61112;SDS011;47184;57.998;56.184;2022-10-24T11:49:49;1.02;;;0.75;;
61112;SDS011;47184;57.998;56.184;2022-10-24T11:52:30;1.13;;;0.70;;
61112;SDS011;47184;57.998;56.184;2022-10-24T11:55:21;1.10;;;0.90;;
61112;SDS011;47184;57.998;56.184;2022-10-24T11:57:52;1.63;;;0.88;;
61112;SDS011;47184;57.998;56.184;2022-10-24T12:00:24;3.22;;;0.80;;
61112;SDS011;47184;57.998;56.184;2022-10-24T12:19:41;1.77;;;1.00;;
61112;SDS011;47184;57.998;56.184;2022-10-24T12:22:17;0.68;;;0.30;;
61112;SDS011;47184;57.998;56.184;2022-10-24T12:24:48;1.75;;;0.98;;
61112;SDS011;47184;57.998;56.184;2022-10-24T12:27:44;2.25;;;0.68;;
61112;SDS011;47184;57.998;56.184;2022-10-24T12:30:20;2.47;;;1.10;;
61112;SDS011;47184;57.998;56.184;2022-10-24T12:32:50;2.47;;;0.88;;
61112;SDS011;47184;57.998;56.184;2022-10-24T12:37:59;2.80;;;1.00;;
61112;SDS011;47184;57.998;56.184;2022-10-24T12:45:55;1.27;;;0.60;;
61112;SDS011;47184;57.998;56.184;2022-10-24T12:51:04;1.02;;;0.73;;
61112;SDS011;47184;57.998;56.184;2022-10-24T12:56:36;2.35;;;1.25;;
61112;SDS011;47184;57.998;56.184;2022-10-24T13:23:45;1.60;;;0.90;;
61112;SDS011;47184;57.998;56.184;2022-10-24T13:29:02;0.73;;;0.50;;
61112;SDS011;47184;57.998;56.184;2022-10-24T13:42:41;0.50;;;0.45;;
61112;SDS011;47184;57.998;56.184;2022-10-24T13:45:20;1.55;;;0.73;;
61112;SDS011;47184;57.998;56.184;2022-10-24T13:47:57;1.30;;;0.80;;
61112;SDS011;47184;57.998;56.184;2022-10-24T13:50:35;2.72;;;1.10;;
61112;SDS011;47184;57.998;56.184;2022-10-24T13:55:48;1.85;;;1.15;;
61112;SDS011;47184;57.998;56.184;2022-10-24T14:01:31;3.33;;;1.23;;
61112;SDS011;47184;57.998;56.184;2022-10-24T14:03:41;1.00;;;0.63;;
61112;SDS011;47184;57.998;56.184;2022-10-24T14:06:08;1.65;;;0.50;;
61112;SDS011;47184;57.998;56.184;2022-10-24T14:11:07;2.83;;;1.33;;
61112;SDS011;47184;57.998;56.184;2022-10-24T14:13:43;0.70;;;0.47;;
61112;SDS011;47184;57.998;56.184;2022-10-24T14:16:16;1.45;;;0.65;;
61112;SDS011;47184;57.998;56.184;2022-10-24T14:21:45;0.03;;;0.03;;
61112;SDS011;47184;57.998;56.184;2022-10-24T14:24:15;1.35;;;0.60;;
61112;SDS011;47184;57.998;56.184;2022-10-24T14:26:44;1.45;;;0.57;;
61112;SDS011;47184;57.998;56.184;2022-10-24T14:29:32;1.05;;;0.50;;
61112;SDS011;47184;57.998;56.184;2022-10-24T14:32:03;1.00;;;0.60;;
61112;SDS011;47184;57.998;56.184;2022-10-24T14:34:33;0.45;;;0.20;;
61112;SDS011;47184;57.998;56.184;2022-10-24T14:37:03;1.00;;;0.60;;
61112;SDS011;47184;57.998;56.184;2022-10-24T14:39:31;1.63;;;0.60;;
61112;SDS011;47184;57.998;56.184;2022-10-24T14:41:58;2.42;;;0.80;;
61112;SDS011;47184;57.998;56.184;2022-10-24T14:44:26;1.00;;;0.50;;
61112;SDS011;47184;57.998;56.184;2022-10-24T14:47:03;0.60;;;0.52;;
61112;SDS011;47184;57.998;56.184;2022-10-24T14:49:32;0.73;;;0.40;;
61112;SDS011;47184;57.998;56.184;2022-10-24T14:55:04;0.70;;;0.40;;
61112;SDS011;47184;57.998;56.184;2022-10-24T14:57:33;1.88;;;0.43;;
61112;SDS011;47184;57.998;56.184;2022-10-24T15:00:03;1.38;;;0.82;;
61112;SDS011;47184;57.998;56.184;2022-10-24T15:02:33;1.05;;;0.88;;
61112;SDS011;47184;57.998;56.184;2022-10-24T15:08:46;1.50;;;0.68;;
61112;SDS011;47184;57.998;56.184;2022-10-24T15:16:26;1.17;;;0.75;;
61112;SDS011;47184;57.998;56.184;2022-10-24T15:18:57;0.22;;;0.20;;
61112;SDS011;47184;57.998;56.184;2022-10-24T15:21:30;0.47;;;0.40;;
61112;SDS011;47184;57.998;56.184;2022-10-24T15:24:01;0.30;;;0.30;;
61112;SDS011;47184;57.998;56.184;2022-10-24T15:26:38;0.90;;;0.57;;
61112;SDS011;47184;57.998;56.184;2022-10-24T15:31:44;0.52;;;0.20;;
61112;SDS011;47184;57.998;56.184;2022-10-24T15:34:22;0.55;;;0.30;;
61112;SDS011;47184;57.998;56.184;2022-10-24T15:36:49;0.38;;;0.25;;
61112;SDS011;47184;57.998;56.184;2022-10-24T15:39:20;0.17;;;0.10;;
61112;SDS011;47184;57.998;56.184;2022-10-24T15:41:49;1.05;;;0.68;;
61112;SDS011;47184;57.998;56.184;2022-10-24T15:46:47;0.90;;;0.43;;
61112;SDS011;47184;57.998;56.184;2022-10-24T15:49:14;0.88;;;0.60;;
61112;SDS011;47184;57.998;56.184;2022-10-24T15:51:41;1.00;;;0.57;;
61112;SDS011;47184;57.998;56.184;2022-10-24T15:54:10;1.60;;;0.98;;
61112;SDS011;47184;57.998;56.184;2022-10-24T15:56:37;0.77;;;0.50;;
61112;SDS011;47184;57.998;56.184;2022-10-24T15:59:05;1.10;;;0.28;;
61112;SDS011;47184;57.998;56.184;2022-10-24T16:01:36;0.40;;;0.30;;
61112;SDS011;47184;57.998;56.184;2022-10-24T16:04:07;0.00;;;0.00;;
61112;SDS011;47184;57.998;56.184;2022-10-24T16:06:34;1.27;;;0.63;;
61112;SDS011;47184;57.998;56.184;2022-10-24T16:09:00;1.63;;;0.93;;
61112;SDS011;47184;57.998;56.184;2022-10-24T16:11:26;0.93;;;0.73;;
61112;SDS011;47184;57.998;56.184;2022-10-24T16:13:53;0.22;;;0.13;;
61112;SDS011;47184;57.998;56.184;2022-10-24T16:16:20;0.90;;;0.52;;
61112;SDS011;47184;57.998;56.184;2022-10-24T16:18:46;1.55;;;0.50;;
61112;SDS011;47184;57.998;56.184;2022-10-24T16:21:15;0.43;;;0.32;;
61112;SDS011;47184;57.998;56.184;2022-10-24T16:23:46;2.47;;;0.80;;
61112;SDS011;47184;57.998;56.184;2022-10-24T16:26:15;4.38;;;0.75;;
61112;SDS011;47184;57.998;56.184;2022-10-24T16:28:42;0.80;;;0.60;;
61112;SDS011;47184;57.998;56.184;2022-10-24T16:31:09;0.52;;;0.35;;
61112;SDS011;47184;57.998;56.184;2022-10-24T16:33:43;0.43;;;0.28;;
61112;SDS011;47184;57.998;56.184;2022-10-24T16:36:10;1.38;;;0.68;;
61112;SDS011;47184;57.998;56.184;2022-10-24T16:38:37;1.00;;;0.45;;
61112;SDS011;47184;57.998;56.184;2022-10-24T16:41:03;0.15;;;0.10;;
61112;SDS011;47184;57.998;56.184;2022-10-24T16:43:29;0.63;;;0.47;;
61112;SDS011;47184;57.998;56.184;2022-10-24T16:45:59;0.50;;;0.40;;
61112;SDS011;47184;57.998;56.184;2022-10-24T16:48:28;2.15;;;0.57;;
61112;SDS011;47184;57.998;56.184;2022-10-24T16:50:54;0.82;;;0.70;;
61112;SDS011;47184;57.998;56.184;2022-10-24T16:53:21;0.70;;;0.50;;
61112;SDS011;47184;57.998;56.184;2022-10-24T16:55:52;0.20;;;0.20;;
61112;SDS011;47184;57.998;56.184;2022-10-24T16:58:20;0.90;;;0.73;;
61112;SDS011;47184;57.998;56.184;2022-10-24T17:00:46;0.30;;;0.20;;
61112;SDS011;47184;57.998;56.184;2022-10-24T17:03:12;0.40;;;0.30;;
61112;SDS011;47184;57.998;56.184;2022-10-24T17:05:39;1.02;;;0.43;;
61112;SDS011;47184;57.998;56.184;2022-10-24T17:08:05;1.25;;;0.85;;
61112;SDS011;47184;57.998;56.184;2022-10-24T17:10:32;0.95;;;0.73;;
61112;SDS011;47184;57.998;56.184;2022-10-24T17:12:58;1.08;;;0.57;;
61112;SDS011;47184;57.998;56.184;2022-10-24T17:15:26;1.63;;;0.50;;
61112;SDS011;47184;57.998;56.184;2022-10-24T17:17:52;1.63;;;0.50;;
61112;SDS011;47184;57.998;56.184;2022-10-24T17:20:18;0.77;;;0.63;;
61112;SDS011;47184;57.998;56.184;2022-10-24T17:22:45;0.65;;;0.35;;
61112;SDS011;47184;57.998;56.184;2022-10-24T17:25:22;0.55;;;0.47;;
61112;SDS011;47184;57.998;56.184;2022-10-24T17:27:50;4.93;;;0.73;;
61112;SDS011;47184;57.998;56.184;2022-10-24T17:30:18;0.65;;;0.43;;
61112;SDS011;47184;57.998;56.184;2022-10-24T17:32:46;1.70;;;0.45;;
61112;SDS011;47184;57.998;56.184;2022-10-24T17:35:13;0.55;;;0.38;;
61112;SDS011;47184;57.998;56.184;2022-10-24T17:40:23;0.25;;;0.20;;
61112;SDS011;47184;57.998;56.184;2022-10-24T17:42:52;0.22;;;0.22;;